Falken — SBCH — position and weather

sailwx.info

Track history (hours):
 
Tides and Currents Weather Stations Pressure Air Temp Water Temp Dewpoint Dewpoint Depression Visibility Wind Speed Wind Dir Waves Ship Positions

Falken (Sweden)

Last reported at 2014-Aug-01 06:16 UTC. Time now 2014-Aug-02 00:30 UTC.
Position N 57°17' E 017°60'.

Length 40 m; draft 4.2 m.

Type: Sailing vessel. MMSI: 265070000.

Date/timePositionNaut miles runAvg speedWind from/ knotsBaromVisibWave heightAir tempDewpointWater temp
2014-Aug-01 06:16N 57°17' E 017°60'2 2.8
2014-Aug-01 05:26N 57°17' E 017°55'4 4.9
2014-Aug-01 04:33N 57°20' E 017°50'5 4.8
2014-Aug-01 03:33N 57°24' E 017°45'2 2.4
2014-Aug-01 02:33N 57°22' E 017°46'6 4.8
2014-Aug-01 01:21N 57°17' E 017°50'5 5.8
2014-Aug-01 00:32N 57°21' E 017°52'11 2.7
2014-Jul-31 20:24N 57°10' E 017°48'5 5.7
2014-Jul-31 19:33N 57°13' E 017°42'5 4.9
2014-Jul-31 18:34N 57°16' E 017°34'3 2.7
2014-Jul-31 17:31N 57°13' E 017°31'2 2.2
2014-Jul-31 16:34N 57°12' E 017°29'6 4.6
2014-Jul-31 15:18N 57°06' E 017°26'6 5.4
2014-Jul-31 14:14N 57°01' E 017°22'5 6.5
2014-Jul-31 13:29N 56°56' E 017°20'23 3.2
2014-Jul-31 06:04N 56°35' E 017°01'3 5.7
2014-Jul-31 05:31N 56°32' E 016°58'6 6.2
2014-Jul-31 04:30N 56°27' E 016°52'23 4.7
2014-Jul-30 23:34N 56°07' E 016°32'4 4.0
2014-Jul-30 22:33N 56°05' E 016°26'3 3.2
2014-Jul-30 21:33N 56°04' E 016°20'5 5.2
2014-Jul-30 20:33N 56°02' E 016°11'7 7.0
2014-Jul-30 19:33N 56°01' E 015°59'7 6.8
2014-Jul-30 18:33N 56°00' E 015°47'5 4.8
2014-Jul-30 17:33N 56°00' E 015°38'3 3.2
2014-Jul-30 16:34N 56°01' E 015°33'1 0.7
2014-Jul-30 15:34N 56°02' E 015°33'0 0.2
2014-Jul-30 14:34N 56°02' E 015°34'2 2.4
2014-Jul-30 13:33N 56°05' E 015°34'4 3.9
2014-Jul-30 12:34N 56°08' E 015°36'1 0.6
2014-Jul-30 11:33N 56°08' E 015°37'0 0.0
2014-Jul-30 10:34N 56°08' E 015°37'0 0.0
2014-Jul-30 09:33N 56°08' E 015°37'0 0.0
2014-Jul-30 08:33N 56°08' E 015°37'0 0.0
2014-Jul-30 07:34N 56°08' E 015°37'0 0.0
2014-Jul-30 06:33N 56°08' E 015°37'0 0.0
2014-Jul-30 05:33N 56°08' E 015°37'0 0.0
2014-Jul-30 04:33N 56°08' E 015°37'0 0.0
2014-Jul-30 03:34N 56°08' E 015°37'0 0.0
2014-Jul-30 02:34N 56°08' E 015°37'0 0.0
2014-Jul-30 01:33N 56°08' E 015°37'0 0.0
2014-Jul-30 00:33N 56°08' E 015°37'0 0.0
2014-Jul-29 23:33N 56°08' E 015°37'0 0.0
2014-Jul-29 22:33N 56°08' E 015°37'0 0.0
2014-Jul-29 21:33N 56°08' E 015°37'0 0.0
2014-Jul-29 20:33N 56°09' E 015°37'0 0.0
2014-Jul-29 19:34N 56°09' E 015°37'0 0.0
2014-Jul-29 18:34N 56°09' E 015°37'0 0.0
2014-Jul-29 17:33N 56°09' E 015°37'0 0.0
2014-Jul-29 16:33N 56°09' E 015°37'0 0.3
2014-Jul-29 15:33N 56°09' E 015°37'1 1.1
2014-Jul-29 14:34N 56°09' E 015°35'0 0.0
2014-Jul-29 13:33N 56°09' E 015°35'0 0.0
2014-Jul-29 12:33N 56°09' E 015°35'0 0.0
2014-Jul-29 11:33N 56°09' E 015°35'0 0.0
2014-Jul-29 10:33N 56°09' E 015°35'0 0.0
2014-Jul-29 09:33N 56°09' E 015°35'0 0.0
2014-Jul-29 08:33N 56°09' E 015°35'0 0.0
2014-Jul-29 07:33N 56°09' E 015°35'0 0.0
2014-Jul-29 06:33N 56°09' E 015°35'0 0.0
2014-Jul-29 05:30N 56°09' E 015°35'0 0.0
2014-Jul-29 04:30N 56°09' E 015°35'0 0.0
2014-Jul-29 03:30N 56°09' E 015°35'0 0.0
2014-Jul-29 02:12N 56°09' E 015°35'0 0.0
2014-Jul-29 01:30N 56°09' E 015°35'0 0.0
2014-Jul-29 00:30N 56°09' E 015°35'0 0.0
2014-Jul-28 23:30N 56°09' E 015°35'0 0.0
2014-Jul-28 22:24N 56°09' E 015°35'0 0.0
2014-Jul-28 21:30N 56°09' E 015°35'0 0.0
2014-Jul-28 20:30N 56°09' E 015°35'0 0.0
2014-Jul-28 18:30N 56°09' E 015°35'0 0.0
2014-Jul-28 17:30N 56°09' E 015°35'0 0.0
2014-Jul-28 16:30N 56°09' E 015°35'0 0.0
2014-Jul-28 15:30N 56°09' E 015°35'0 0.0
2014-Jul-28 14:30N 56°09' E 015°35'0 0.0
2014-Jul-28 13:30N 56°09' E 015°35'0 0.0
2014-Jul-28 12:30N 56°09' E 015°35'0 0.0
2014-Jul-28 11:24N 56°09' E 015°35'0 0.0
2014-Jul-28 10:18N 56°09' E 015°35'0 0.0
2014-Jul-28 09:30N 56°09' E 015°35'0 0.0
2014-Jul-28 06:06N 56°09' E 015°35'0 0.0
2014-Jul-28 05:30N 56°09' E 015°35'0 0.0
2014-Jul-28 04:18N 56°09' E 015°35'0 0.0
2014-Jul-28 03:30N 56°09' E 015°35'0 0.0
2014-Jul-28 02:06N 56°09' E 015°35'0 0.0
2014-Jul-28 01:24N 56°09' E 015°35'0 0.0
2014-Jul-28 00:30N 56°09' E 015°35'0 0.0
2014-Jul-27 20:24N 56°09' E 015°35'0 0.0
2014-Jul-27 19:24N 56°09' E 015°35'0 0.0
2014-Jul-27 09:18N 56°09' E 015°35'0 0.0
2014-Jul-27 07:30N 56°09' E 015°35'0 0.0
2014-Jul-27 03:24N 56°09' E 015°35'0 0.0
2014-Jul-27 00:06N 56°09' E 015°35'0 0.0
2014-Jul-26 23:30N 56°09' E 015°35'0 0.0
2014-Jul-26 22:12N 56°09' E 015°35'0 0.0
2014-Jul-26 21:30N 56°09' E 015°35'0 0.0
2014-Jul-26 20:30N 56°09' E 015°35'0 0.0
2014-Jul-26 19:30N 56°09' E 015°35'0 0.0
2014-Jul-26 18:33N 56°09' E 015°35'0 0.0
2014-Jul-26 17:33N 56°09' E 015°35'0 0.0
2014-Jul-26 16:33N 56°09' E 015°35'0 0.0
2014-Jul-26 15:33N 56°09' E 015°35'0 0.0
2014-Jul-26 14:33N 56°09' E 015°35'0 0.0
2014-Jul-26 13:33N 56°09' E 015°35'0 0.0
2014-Jul-26 12:30N 56°09' E 015°35'0 0.0
2014-Jul-26 11:33N 56°09' E 015°35'0 0.0
2014-Jul-26 10:33N 56°09' E 015°35'0 0.0
2014-Jul-26 09:33N 56°09' E 015°35'0 0.0
2014-Jul-26 08:33N 56°09' E 015°35'0 0.0
2014-Jul-26 07:33N 56°09' E 015°35'0 0.0
2014-Jul-26 06:33N 56°09' E 015°35'0 0.0
2014-Jul-26 05:33N 56°09' E 015°35'0 0.0
2014-Jul-26 04:33N 56°09' E 015°35'0 0.0
2014-Jul-26 03:33N 56°09' E 015°35'0 0.0
2014-Jul-26 02:33N 56°09' E 015°35'0 0.0
2014-Jul-26 01:33N 56°09' E 015°35'0 0.0
2014-Jul-26 00:33N 56°09' E 015°35'0 0.0
2014-Jul-25 23:33N 56°09' E 015°35'0 0.0
2014-Jul-25 22:33N 56°09' E 015°35'0 0.0
2014-Jul-25 21:33N 56°09' E 015°35'0 0.0
2014-Jul-25 20:33N 56°09' E 015°35'0 0.0
2014-Jul-25 19:33N 56°09' E 015°35'0 0.0
2014-Jul-25 18:33N 56°09' E 015°35'0 0.0
2014-Jul-25 17:33N 56°09' E 015°35'0 0.0
2014-Jul-25 16:33N 56°09' E 015°35'0 0.0
2014-Jul-25 15:33N 56°09' E 015°35'0 0.0
2014-Jul-25 14:33N 56°09' E 015°35'0 0.0
2014-Jul-25 13:33N 56°09' E 015°35'0 0.0
2014-Jul-25 12:33N 56°09' E 015°35'0 0.0
2014-Jul-25 11:33N 56°09' E 015°35'0 0.0
2014-Jul-25 10:33N 56°09' E 015°35'0 0.0
2014-Jul-25 09:33N 56°09' E 015°35'0 0.0
2014-Jul-25 08:33N 56°09' E 015°35'0 0.0
2014-Jul-25 07:33N 56°09' E 015°35'0 0.0
2014-Jul-25 06:33N 56°09' E 015°35'0 0.0
2014-Jul-25 05:33N 56°09' E 015°35'0 0.0
2014-Jul-25 04:33N 56°09' E 015°35'0 0.0
2014-Jul-25 03:33N 56°09' E 015°35'0 0.0
2014-Jul-25 02:33N 56°09' E 015°35'0 0.0
2014-Jul-25 01:30N 56°09' E 015°35'0 0.0
2014-Jul-25 00:33N 56°09' E 015°35'0 0.0
2014-Jul-24 23:33N 56°09' E 015°35'0 0.0
2014-Jul-24 22:33N 56°09' E 015°35'0 0.0
2014-Jul-24 21:33N 56°09' E 015°35'0 0.0
2014-Jul-24 20:33N 56°09' E 015°35'0 0.0
2014-Jul-24 19:30N 56°09' E 015°35'0 0.0
2014-Jul-24 18:30N 56°09' E 015°35'0 0.0
2014-Jul-24 17:33N 56°09' E 015°35'0 0.0
2014-Jul-24 16:33N 56°09' E 015°35'0 0.0
2014-Jul-24 15:30N 56°09' E 015°35'0 0.0
2014-Jul-24 14:30N 56°09' E 015°35'0 0.0
2014-Jul-24 13:33N 56°09' E 015°35'0 0.0
2014-Jul-24 12:30N 56°09' E 015°35'0 0.0
2014-Jul-24 11:33N 56°09' E 015°35'0 0.0
2014-Jul-24 10:33N 56°09' E 015°35'0 0.0
2014-Jul-24 09:33N 56°09' E 015°35'0 0.0
2014-Jul-24 08:33N 56°09' E 015°35'0 0.0
2014-Jul-24 07:33N 56°09' E 015°35'0 0.0
2014-Jul-24 06:33N 56°09' E 015°35'0 0.0
2014-Jul-24 05:33N 56°09' E 015°35'0 0.0
2014-Jul-24 04:30N 56°09' E 015°35'0 0.0
2014-Jul-24 03:33N 56°09' E 015°35'0 0.0
2014-Jul-24 02:33N 56°09' E 015°35'0 0.0
2014-Jul-24 01:33N 56°09' E 015°35'0 0.0
2014-Jul-24 00:33N 56°09' E 015°35'0 0.0
2014-Jul-23 23:33N 56°09' E 015°35'0 0.0
2014-Jul-23 22:33N 56°09' E 015°35'0 0.0
2014-Jul-23 21:33N 56°09' E 015°35'0 0.0
2014-Jul-23 20:33N 56°09' E 015°35'0 0.0
2014-Jul-23 19:33N 56°09' E 015°35'0 0.0
2014-Jul-23 18:33N 56°09' E 015°35'0 0.0
2014-Jul-23 17:33N 56°09' E 015°35'0 0.0
2014-Jul-23 16:33N 56°09' E 015°35'0 0.0
2014-Jul-23 15:33N 56°09' E 015°35'0 0.0
2014-Jul-23 14:33N 56°09' E 015°35'1 0.9
2014-Jul-23 13:33N 56°09' E 015°37'8 7.7
2014-Jul-23 12:34N 56°02' E 015°32'7 7.2
2014-Jul-23 11:34N 55°57' E 015°22'8 7.3
2014-Jul-23 10:32N 55°53' E 015°11'7 7.6
2014-Jul-23 09:33N 55°47' E 015°02'7 6.9
2014-Jul-23 08:34N 55°44' E 014°51'7 7.2
2014-Jul-23 07:34N 55°42' E 014°39'6 4.8
2014-Jul-23 06:23N 55°37' E 014°36'5 5.5
2014-Jul-23 05:34N 55°32' E 014°36'5 4.6
2014-Jul-23 04:29N 55°28' E 014°30'5 5.1
2014-Jul-23 03:30N 55°25' E 014°24'5 5.1
2014-Jul-23 02:33N 55°22' E 014°18'6 6.3
2014-Jul-23 01:34N 55°21' E 014°07'7 6.8
2014-Jul-23 00:34N 55°20' E 013°55'7 6.8
2014-Jul-22 23:34N 55°19' E 013°43'6 6.2
2014-Jul-22 22:33N 55°17' E 013°32'7 6.5
2014-Jul-22 21:33N 55°17' E 013°21'7 7.1
2014-Jul-22 20:34N 55°16' E 013°08'7 7.2
2014-Jul-22 19:34N 55°16' E 012°56'7 6.7
2014-Jul-22 18:34N 55°17' E 012°44'5 5.2
2014-Jul-22 17:34N 55°21' E 012°39'5 5.3
2014-Jul-22 16:34N 55°26' E 012°40'6 6.4
2014-Jul-22 15:33N 55°32' E 012°46'6 6.2
2014-Jul-22 14:34N 55°37' E 012°53'6 5.6
2014-Jul-22 13:33N 55°42' E 012°54'7 7.0
2014-Jul-22 12:34N 55°48' E 012°47'7 7.1
2014-Jul-22 11:33N 55°55' E 012°44'7 6.8
2014-Jul-22 10:34N 56°02' E 012°40'1 1.3
2014-Jul-22 09:33N 56°03' E 012°41'0 0.0
2014-Jul-22 08:34N 56°03' E 012°41'5 4.5
2014-Jul-22 07:34N 56°05' E 012°35'5 4.6
2014-Jul-22 06:33N 56°09' E 012°30'  
Track history (hours):
 
Tides and Currents Weather Stations Pressure Air Temp Water Temp Dewpoint Dewpoint Depression Visibility Wind Speed Wind Dir Waves Ship Positions

Falken (Sweden)

Last reported at 2014-Aug-01 06:16 UTC. Time now 2014-Aug-02 00:30 UTC.
Position N 57°17' E 017°60'.

Length 40 m; draft 4.2 m.

Type: Sailing vessel. MMSI: 265070000.

Date/timePositionNaut miles runAvg speedWind from/ knotsBaromVisibWave heightAir tempDewpointWater temp
2014-Aug-01 06:16N 57°17' E 017°60'2 2.8
2014-Aug-01 05:26N 57°17' E 017°55'4 4.9
2014-Aug-01 04:33N 57°20' E 017°50'5 4.8
2014-Aug-01 03:33N 57°24' E 017°45'2 2.4
2014-Aug-01 02:33N 57°22' E 017°46'6 4.8
2014-Aug-01 01:21N 57°17' E 017°50'5 5.8
2014-Aug-01 00:32N 57°21' E 017°52'11 2.7
2014-Jul-31 20:24N 57°10' E 017°48'5 5.7
2014-Jul-31 19:33N 57°13' E 017°42'5 4.9
2014-Jul-31 18:34N 57°16' E 017°34'3 2.7
2014-Jul-31 17:31N 57°13' E 017°31'2 2.2
2014-Jul-31 16:34N 57°12' E 017°29'6 4.6
2014-Jul-31 15:18N 57°06' E 017°26'6 5.4
2014-Jul-31 14:14N 57°01' E 017°22'5 6.5
2014-Jul-31 13:29N 56°56' E 017°20'23 3.2
2014-Jul-31 06:04N 56°35' E 017°01'3 5.7
2014-Jul-31 05:31N 56°32' E 016°58'6 6.2
2014-Jul-31 04:30N 56°27' E 016°52'23 4.7
2014-Jul-30 23:34N 56°07' E 016°32'4 4.0
2014-Jul-30 22:33N 56°05' E 016°26'3 3.2
2014-Jul-30 21:33N 56°04' E 016°20'5 5.2
2014-Jul-30 20:33N 56°02' E 016°11'7 7.0
2014-Jul-30 19:33N 56°01' E 015°59'7 6.8
2014-Jul-30 18:33N 56°00' E 015°47'5 4.8
2014-Jul-30 17:33N 56°00' E 015°38'3 3.2
2014-Jul-30 16:34N 56°01' E 015°33'1 0.7
2014-Jul-30 15:34N 56°02' E 015°33'0 0.2
2014-Jul-30 14:34N 56°02' E 015°34'2 2.4
2014-Jul-30 13:33N 56°05' E 015°34'4 3.9
2014-Jul-30 12:34N 56°08' E 015°36'1 0.6
2014-Jul-30 11:33N 56°08' E 015°37'0 0.0
2014-Jul-30 10:34N 56°08' E 015°37'0 0.0
2014-Jul-30 09:33N 56°08' E 015°37'0 0.0
2014-Jul-30 08:33N 56°08' E 015°37'0 0.0
2014-Jul-30 07:34N 56°08' E 015°37'0 0.0
2014-Jul-30 06:33N 56°08' E 015°37'0 0.0
2014-Jul-30 05:33N 56°08' E 015°37'0 0.0
2014-Jul-30 04:33N 56°08' E 015°37'0 0.0
2014-Jul-30 03:34N 56°08' E 015°37'0 0.0
2014-Jul-30 02:34N 56°08' E 015°37'0 0.0
2014-Jul-30 01:33N 56°08' E 015°37'0 0.0
2014-Jul-30 00:33N 56°08' E 015°37'0 0.0
2014-Jul-29 23:33N 56°08' E 015°37'0 0.0
2014-Jul-29 22:33N 56°08' E 015°37'0 0.0
2014-Jul-29 21:33N 56°08' E 015°37'0 0.0
2014-Jul-29 20:33N 56°09' E 015°37'0 0.0
2014-Jul-29 19:34N 56°09' E 015°37'0 0.0
2014-Jul-29 18:34N 56°09' E 015°37'0 0.0
2014-Jul-29 17:33N 56°09' E 015°37'0 0.0
2014-Jul-29 16:33N 56°09' E 015°37'0 0.3
2014-Jul-29 15:33N 56°09' E 015°37'1 1.1
2014-Jul-29 14:34N 56°09' E 015°35'0 0.0
2014-Jul-29 13:33N 56°09' E 015°35'0 0.0
2014-Jul-29 12:33N 56°09' E 015°35'0 0.0
2014-Jul-29 11:33N 56°09' E 015°35'0 0.0
2014-Jul-29 10:33N 56°09' E 015°35'0 0.0
2014-Jul-29 09:33N 56°09' E 015°35'0 0.0
2014-Jul-29 08:33N 56°09' E 015°35'0 0.0
2014-Jul-29 07:33N 56°09' E 015°35'0 0.0
2014-Jul-29 06:33N 56°09' E 015°35'0 0.0
2014-Jul-29 05:30N 56°09' E 015°35'0 0.0
2014-Jul-29 04:30N 56°09' E 015°35'0 0.0
2014-Jul-29 03:30N 56°09' E 015°35'0 0.0
2014-Jul-29 02:12N 56°09' E 015°35'0 0.0
2014-Jul-29 01:30N 56°09' E 015°35'0 0.0
2014-Jul-29 00:30N 56°09' E 015°35'0 0.0
2014-Jul-28 23:30N 56°09' E 015°35'0 0.0
2014-Jul-28 22:24N 56°09' E 015°35'0 0.0
2014-Jul-28 21:30N 56°09' E 015°35'0 0.0
2014-Jul-28 20:30N 56°09' E 015°35'0 0.0
2014-Jul-28 18:30N 56°09' E 015°35'0 0.0
2014-Jul-28 17:30N 56°09' E 015°35'0 0.0
2014-Jul-28 16:30N 56°09' E 015°35'0 0.0
2014-Jul-28 15:30N 56°09' E 015°35'0 0.0
2014-Jul-28 14:30N 56°09' E 015°35'0 0.0
2014-Jul-28 13:30N 56°09' E 015°35'0 0.0
2014-Jul-28 12:30N 56°09' E 015°35'0 0.0
2014-Jul-28 11:24N 56°09' E 015°35'0 0.0
2014-Jul-28 10:18N 56°09' E 015°35'0 0.0
2014-Jul-28 09:30N 56°09' E 015°35'0 0.0
2014-Jul-28 06:06N 56°09' E 015°35'0 0.0
2014-Jul-28 05:30N 56°09' E 015°35'0 0.0
2014-Jul-28 04:18N 56°09' E 015°35'0 0.0
2014-Jul-28 03:30N 56°09' E 015°35'0 0.0
2014-Jul-28 02:06N 56°09' E 015°35'0 0.0
2014-Jul-28 01:24N 56°09' E 015°35'0 0.0
2014-Jul-28 00:30N 56°09' E 015°35'0 0.0
2014-Jul-27 20:24N 56°09' E 015°35'0 0.0
2014-Jul-27 19:24N 56°09' E 015°35'0 0.0
2014-Jul-27 09:18N 56°09' E 015°35'0 0.0
2014-Jul-27 07:30N 56°09' E 015°35'0 0.0
2014-Jul-27 03:24N 56°09' E 015°35'0 0.0
2014-Jul-27 00:06N 56°09' E 015°35'0 0.0
2014-Jul-26 23:30N 56°09' E 015°35'0 0.0
2014-Jul-26 22:12N 56°09' E 015°35'0 0.0
2014-Jul-26 21:30N 56°09' E 015°35'0 0.0
2014-Jul-26 20:30N 56°09' E 015°35'0 0.0
2014-Jul-26 19:30N 56°09' E 015°35'0 0.0
2014-Jul-26 18:33N 56°09' E 015°35'0 0.0
2014-Jul-26 17:33N 56°09' E 015°35'0 0.0
2014-Jul-26 16:33N 56°09' E 015°35'0 0.0
2014-Jul-26 15:33N 56°09' E 015°35'0 0.0
2014-Jul-26 14:33N 56°09' E 015°35'0 0.0
2014-Jul-26 13:33N 56°09' E 015°35'0 0.0
2014-Jul-26 12:30N 56°09' E 015°35'0 0.0
2014-Jul-26 11:33N 56°09' E 015°35'0 0.0
2014-Jul-26 10:33N 56°09' E 015°35'0 0.0
2014-Jul-26 09:33N 56°09' E 015°35'0 0.0
2014-Jul-26 08:33N 56°09' E 015°35'0 0.0
2014-Jul-26 07:33N 56°09' E 015°35'0 0.0
2014-Jul-26 06:33N 56°09' E 015°35'0 0.0
2014-Jul-26 05:33N 56°09' E 015°35'0 0.0
2014-Jul-26 04:33N 56°09' E 015°35'0 0.0
2014-Jul-26 03:33N 56°09' E 015°35'0 0.0
2014-Jul-26 02:33N 56°09' E 015°35'0 0.0
2014-Jul-26 01:33N 56°09' E 015°35'0 0.0
2014-Jul-26 00:33N 56°09' E 015°35'0 0.0
2014-Jul-25 23:33N 56°09' E 015°35'0 0.0
2014-Jul-25 22:33N 56°09' E 015°35'0 0.0
2014-Jul-25 21:33N 56°09' E 015°35'0 0.0
2014-Jul-25 20:33N 56°09' E 015°35'0 0.0
2014-Jul-25 19:33N 56°09' E 015°35'0 0.0
2014-Jul-25 18:33N 56°09' E 015°35'0 0.0
2014-Jul-25 17:33N 56°09' E 015°35'0 0.0
2014-Jul-25 16:33N 56°09' E 015°35'0 0.0
2014-Jul-25 15:33N 56°09' E 015°35'0 0.0
2014-Jul-25 14:33N 56°09' E 015°35'0 0.0
2014-Jul-25 13:33N 56°09' E 015°35'0 0.0
2014-Jul-25 12:33N 56°09' E 015°35'0 0.0
2014-Jul-25 11:33N 56°09' E 015°35'0 0.0
2014-Jul-25 10:33N 56°09' E 015°35'0 0.0
2014-Jul-25 09:33N 56°09' E 015°35'0 0.0
2014-Jul-25 08:33N 56°09' E 015°35'0 0.0
2014-Jul-25 07:33N 56°09' E 015°35'0 0.0
2014-Jul-25 06:33N 56°09' E 015°35'0 0.0
2014-Jul-25 05:33N 56°09' E 015°35'0 0.0
2014-Jul-25 04:33N 56°09' E 015°35'0 0.0
2014-Jul-25 03:33N 56°09' E 015°35'0 0.0
2014-Jul-25 02:33N 56°09' E 015°35'0 0.0
2014-Jul-25 01:30N 56°09' E 015°35'0 0.0
2014-Jul-25 00:33N 56°09' E 015°35'0 0.0
2014-Jul-24 23:33N 56°09' E 015°35'0 0.0
2014-Jul-24 22:33N 56°09' E 015°35'0 0.0
2014-Jul-24 21:33N 56°09' E 015°35'0 0.0
2014-Jul-24 20:33N 56°09' E 015°35'0 0.0
2014-Jul-24 19:30N 56°09' E 015°35'0 0.0
2014-Jul-24 18:30N 56°09' E 015°35'0 0.0
2014-Jul-24 17:33N 56°09' E 015°35'0 0.0
2014-Jul-24 16:33N 56°09' E 015°35'0 0.0
2014-Jul-24 15:30N 56°09' E 015°35'0 0.0
2014-Jul-24 14:30N 56°09' E 015°35'0 0.0
2014-Jul-24 13:33N 56°09' E 015°35'0 0.0
2014-Jul-24 12:30N 56°09' E 015°35'0 0.0
2014-Jul-24 11:33N 56°09' E 015°35'0 0.0
2014-Jul-24 10:33N 56°09' E 015°35'0 0.0
2014-Jul-24 09:33N 56°09' E 015°35'0 0.0
2014-Jul-24 08:33N 56°09' E 015°35'0 0.0
2014-Jul-24 07:33N 56°09' E 015°35'0 0.0
2014-Jul-24 06:33N 56°09' E 015°35'0 0.0
2014-Jul-24 05:33N 56°09' E 015°35'0 0.0
2014-Jul-24 04:30N 56°09' E 015°35'0 0.0
2014-Jul-24 03:33N 56°09' E 015°35'0 0.0
2014-Jul-24 02:33N 56°09' E 015°35'0 0.0
2014-Jul-24 01:33N 56°09' E 015°35'0 0.0
2014-Jul-24 00:33N 56°09' E 015°35'0 0.0
2014-Jul-23 23:33N 56°09' E 015°35'0 0.0
2014-Jul-23 22:33N 56°09' E 015°35'0 0.0
2014-Jul-23 21:33N 56°09' E 015°35'0 0.0
2014-Jul-23 20:33N 56°09' E 015°35'0 0.0
2014-Jul-23 19:33N 56°09' E 015°35'0 0.0
2014-Jul-23 18:33N 56°09' E 015°35'0 0.0
2014-Jul-23 17:33N 56°09' E 015°35'0 0.0
2014-Jul-23 16:33N 56°09' E 015°35'0 0.0
2014-Jul-23 15:33N 56°09' E 015°35'0 0.0
2014-Jul-23 14:33N 56°09' E 015°35'1 0.9
2014-Jul-23 13:33N 56°09' E 015°37'8 7.7
2014-Jul-23 12:34N 56°02' E 015°32'7 7.2
2014-Jul-23 11:34N 55°57' E 015°22'8 7.3
2014-Jul-23 10:32N 55°53' E 015°11'7 7.6
2014-Jul-23 09:33N 55°47' E 015°02'7 6.9
2014-Jul-23 08:34N 55°44' E 014°51'7 7.2
2014-Jul-23 07:34N 55°42' E 014°39'6 4.8
2014-Jul-23 06:23N 55°37' E 014°36'5 5.5
2014-Jul-23 05:34N 55°32' E 014°36'5 4.6
2014-Jul-23 04:29N 55°28' E 014°30'5 5.1
2014-Jul-23 03:30N 55°25' E 014°24'5 5.1
2014-Jul-23 02:33N 55°22' E 014°18'6 6.3
2014-Jul-23 01:34N 55°21' E 014°07'7 6.8
2014-Jul-23 00:34N 55°20' E 013°55'7 6.8
2014-Jul-22 23:34N 55°19' E 013°43'6 6.2
2014-Jul-22 22:33N 55°17' E 013°32'7 6.5
2014-Jul-22 21:33N 55°17' E 013°21'7 7.1
2014-Jul-22 20:34N 55°16' E 013°08'7 7.2
2014-Jul-22 19:34N 55°16' E 012°56'7 6.7
2014-Jul-22 18:34N 55°17' E 012°44'5 5.2
2014-Jul-22 17:34N 55°21' E 012°39'5 5.3
2014-Jul-22 16:34N 55°26' E 012°40'6 6.4
2014-Jul-22 15:33N 55°32' E 012°46'6 6.2
2014-Jul-22 14:34N 55°37' E 012°53'6 5.6
2014-Jul-22 13:33N 55°42' E 012°54'7 7.0
2014-Jul-22 12:34N 55°48' E 012°47'7 7.1
2014-Jul-22 11:33N 55°55' E 012°44'7 6.8
2014-Jul-22 10:34N 56°02' E 012°40'1 1.3
2014-Jul-22 09:33N 56°03' E 012°41'0 0.0
2014-Jul-22 08:34N 56°03' E 012°41'5 4.5
2014-Jul-22 07:34N 56°05' E 012°35'5 4.6
2014-Jul-22 06:33N 56°09' E 012°30'  

Dump ship's entire track history